Time;durP1;ratioP1;P1;durP2;ratioP2;P2;SDS_P1;SDS_P2;PMS_P1;PMS_P2;Temp;Humidity;BMP_temperature;BMP_pressure;BME280_temperature;BME280_humidity;BME280_pressure;Samples;Min_cycle;Max_cycle;Signal;HPM_P1;HPM_P2
2023/04/14 00:00:58;;;;;;;7.47;2.00;;;4.70;99.90;;;;;;5104985;27;20062;-68
2023/04/14 00:03:23;;;;;;;7.05;2.40;;;4.60;99.90;;;;;;5104196;27;20047;-66
2023/04/14 00:05:49;;;;;;;7.68;2.30;;;4.60;99.90;;;;;;5106975;27;20046;-65
2023/04/14 00:08:15;;;;;;;7.00;2.35;;;4.60;99.90;;;;;;5103778;27;20137;-69
2023/04/14 00:10:40;;;;;;;5.40;2.22;;;4.60;99.90;;;;;;5101229;27;20099;-68
2023/04/14 00:13:06;;;;;;;6.13;1.83;;;4.60;99.90;;;;;;5103303;27;20035;-71
2023/04/14 00:15:32;;;;;;;5.72;2.00;;;4.60;99.90;;;;;;5132345;27;20031;-69
2023/04/14 00:17:57;;;;;;;6.25;2.05;;;4.60;99.90;;;;;;5109675;27;20112;-71
2023/04/14 00:20:23;;;;;;;7.55;2.63;;;4.50;99.90;;;;;;5111367;27;20385;-69
2023/04/14 00:22:49;;;;;;;6.50;2.13;;;4.50;99.90;;;;;;5131218;27;20047;-69
2023/04/14 00:25:14;;;;;;;5.38;1.95;;;4.50;99.90;;;;;;5103017;27;20045;-70
2023/04/14 00:27:40;;;;;;;6.95;2.13;;;4.50;99.90;;;;;;5089937;27;20078;-69
2023/04/14 00:30:06;;;;;;;9.00;2.25;;;4.50;99.90;;;;;;5112077;27;20043;-69
2023/04/14 00:32:32;;;;;;;7.75;2.63;;;4.60;99.90;;;;;;5116141;27;20048;-68
2023/04/14 00:34:59;;;;;;;5.97;2.28;;;4.70;99.90;;;;;;5113136;27;20122;-69
2023/04/14 00:37:25;;;;;;;10.13;2.25;;;4.70;99.90;;;;;;5114332;27;20068;-69
2023/04/14 00:39:50;;;;;;;8.30;2.22;;;4.70;99.90;;;;;;5112363;27;20072;-67
2023/04/14 00:42:16;;;;;;;5.20;2.50;;;4.60;99.90;;;;;;5113719;27;20431;-67
2023/04/14 00:44:42;;;;;;;6.03;2.08;;;4.60;99.90;;;;;;5108207;27;20511;-68
2023/04/14 00:47:08;;;;;;;8.27;2.28;;;4.60;99.90;;;;;;5113661;27;20363;-70
2023/04/14 00:49:35;;;;;;;7.80;1.98;;;4.70;99.90;;;;;;5109098;27;20043;-68
2023/04/14 00:52:02;;;;;;;6.95;2.42;;;4.70;99.90;;;;;;5115334;27;20515;-70
2023/04/14 00:54:30;;;;;;;7.25;2.05;;;4.70;99.90;;;;;;5109523;27;20390;-68
2023/04/14 00:56:56;;;;;;;9.05;2.83;;;4.70;99.90;;;;;;5092531;27;20129;-68
2023/04/14 00:59:22;;;;;;;8.35;3.15;;;4.70;99.90;;;;;;5114588;27;20031;-71
2023/04/14 01:01:48;;;;;;;6.85;2.00;;;4.70;99.90;;;;;;5115513;27;20134;-66
2023/04/14 01:04:15;;;;;;;4.40;1.98;;;4.60;99.90;;;;;;5113508;27;20395;-69
2023/04/14 01:06:40;;;;;;;8.07;1.92;;;4.60;99.90;;;;;;5113409;27;20138;-69
2023/04/14 01:09:08;;;;;;;5.63;2.00;;;4.60;99.90;;;;;;5114803;27;20130;-67
2023/04/14 01:11:53;;;;;;;4.90;1.80;;;4.50;99.90;;;;;;5115594;27;20039;-66
2023/04/14 01:14:27;;;;;;;7.25;2.25;;;4.50;99.90;;;;;;5116984;27;20141;-70
2023/04/14 01:17:00;;;;;;;6.05;2.22;;;4.50;99.90;;;;;;5114346;27;20043;-68
2023/04/14 01:19:50;;;;;;;7.32;1.90;;;4.50;99.90;;;;;;5116443;27;20051;-69
2023/04/14 01:22:18;;;;;;;6.82;1.95;;;4.40;99.90;;;;;;5099833;27;20118;-68
2023/04/14 01:24:59;;;;;;;6.85;1.90;;;4.40;99.90;;;;;;5114247;27;20039;-68
2023/04/14 01:27:35;;;;;;;6.38;2.08;;;4.40;99.90;;;;;;5143481;27;20039;-69
2023/04/14 01:30:32;;;;;;;6.20;2.30;;;4.30;99.90;;;;;;5115596;27;20046;-66
2023/04/14 01:33:02;;;;;;;7.75;2.00;;;4.30;99.90;;;;;;5114455;27;20039;-67
2023/04/14 01:35:38;;;;;;;4.68;2.13;;;4.30;99.90;;;;;;5113011;27;20071;-66
2023/04/14 01:38:09;;;;;;;7.50;2.78;;;4.30;99.90;;;;;;5111002;27;20105;-68
2023/04/14 01:40:36;;;;;;;4.72;2.00;;;4.20;99.90;;;;;;5116018;27;20046;-68
2023/04/14 01:43:09;;;;;;;6.13;1.85;;;4.20;99.90;;;;;;5112822;27;20166;-67
2023/04/14 01:45:43;;;;;;;8.15;2.33;;;4.20;99.90;;;;;;5110583;27;20118;-68
2023/04/14 01:48:09;;;;;;;5.55;1.95;;;4.20;99.90;;;;;;5110264;27;20051;-67
2023/04/14 01:50:36;;;;;;;4.15;1.80;;;4.20;99.90;;;;;;5114736;27;20043;-69
2023/04/14 01:53:05;;;;;;;5.53;2.00;;;4.20;99.90;;;;;;5113315;27;20039;-67
2023/04/14 01:55:32;;;;;;;8.02;2.30;;;4.20;99.90;;;;;;5112818;27;20058;-69
2023/04/14 01:57:58;;;;;;;6.20;2.15;;;4.20;99.90;;;;;;5101665;27;20047;-67
2023/04/14 02:00:25;;;;;;;6.50;2.25;;;4.20;99.90;;;;;;5104155;27;20059;-66
2023/04/14 02:02:53;;;;;;;6.15;2.10;;;4.20;99.90;;;;;;5085519;27;20040;-66
2023/04/14 02:05:20;;;;;;;6.90;2.10;;;4.20;99.90;;;;;;5089432;28;20066;-69
2023/04/14 02:07:47;;;;;;;6.88;2.08;;;4.20;99.90;;;;;;5102037;27;20489;-66
2023/04/14 02:10:16;;;;;;;8.43;2.28;;;4.20;99.90;;;;;;5100831;27;20049;-68
2023/04/14 02:12:43;;;;;;;6.47;1.98;;;4.20;99.90;;;;;;5097493;27;20040;-68
2023/04/14 02:15:12;;;;;;;5.95;1.63;;;4.20;99.90;;;;;;5099246;27;20032;-70
2023/04/14 02:17:40;;;;;;;6.90;1.95;;;4.10;99.90;;;;;;5104592;27;20744;-70
2023/04/14 02:20:11;;;;;;;4.45;1.80;;;4.10;99.90;;;;;;5107481;27;20430;-69
2023/04/14 02:22:37;;;;;;;7.45;2.03;;;4.20;99.90;;;;;;5102773;27;20086;-69
2023/04/14 02:25:04;;;;;;;5.22;1.73;;;4.10;99.90;;;;;;5100197;27;20075;-70
2023/04/14 02:27:33;;;;;;;8.65;2.00;;;4.10;99.90;;;;;;5102055;27;20035;-71
2023/04/14 02:30:00;;;;;;;5.97;1.92;;;4.10;99.90;;;;;;5121868;27;20047;-70
2023/04/14 02:32:29;;;;;;;4.53;1.77;;;4.10;99.90;;;;;;5106187;27;20052;-68
2023/04/14 02:35:12;;;;;;;7.53;1.90;;;4.10;99.90;;;;;;5108642;27;20047;-71
2023/04/14 02:37:42;;;;;;;6.45;1.60;;;4.20;99.90;;;;;;5102960;27;20047;-69
2023/04/14 02:40:21;;;;;;;4.70;1.63;;;4.10;99.90;;;;;;5109273;27;20032;-68
2023/04/14 02:42:55;;;;;;;5.43;1.52;;;4.20;99.90;;;;;;5102119;27;20043;-68
2023/04/14 02:45:24;;;;;;;8.63;1.88;;;4.10;99.90;;;;;;5104150;27;20038;-68
2023/04/14 02:47:55;;;;;;;6.00;2.35;;;4.20;99.90;;;;;;5104506;27;20051;-71
2023/04/14 02:50:23;;;;;;;7.95;1.90;;;4.10;99.90;;;;;;5099340;27;20035;-65
2023/04/14 02:52:51;;;;;;;5.43;1.88;;;4.10;99.90;;;;;;5091583;28;20052;-69
2023/04/14 02:55:18;;;;;;;4.00;1.80;;;4.10;99.90;;;;;;5099330;27;20072;-67
2023/04/14 02:57:47;;;;;;;5.50;1.65;;;4.20;99.90;;;;;;5100976;27;20047;-72
2023/04/14 03:00:14;;;;;;;5.30;2.00;;;4.10;99.90;;;;;;5125461;27;20104;-68
2023/04/14 03:02:45;;;;;;;7.93;2.13;;;4.10;99.90;;;;;;5144707;27;20058;-68
2023/04/14 03:05:11;;;;;;;7.93;2.08;;;4.10;99.90;;;;;;5128792;27;20034;-69
2023/04/14 03:07:39;;;;;;;7.15;2.25;;;4.10;99.90;;;;;;5133731;27;20033;-68
2023/04/14 03:10:06;;;;;;;5.38;2.03;;;4.10;99.90;;;;;;5110382;27;20544;-68
2023/04/14 03:12:33;;;;;;;4.90;2.22;;;4.10;99.90;;;;;;5104536;27;20035;-68
2023/04/14 03:15:01;;;;;;;5.85;1.67;;;4.10;99.90;;;;;;5110924;27;20051;-71
2023/04/14 03:17:27;;;;;;;6.57;1.90;;;4.10;99.90;;;;;;5128937;27;20113;-69
2023/04/14 03:19:53;;;;;;;5.30;2.00;;;4.10;99.90;;;;;;5106876;27;20039;-72
2023/04/14 03:22:20;;;;;;;3.38;1.73;;;4.00;99.90;;;;;;5110825;27;20404;-68
2023/04/14 03:24:46;;;;;;;3.97;1.98;;;4.00;99.90;;;;;;5104545;27;20108;-68
2023/04/14 03:27:21;;;;;;;5.00;2.13;;;3.90;99.90;;;;;;5104376;27;20495;-68
2023/04/14 03:29:51;;;;;;;7.38;2.00;;;3.90;99.90;;;;;;5103888;27;21184;-68
2023/04/14 03:32:18;;;;;;;6.18;1.98;;;3.90;99.90;;;;;;5099166;27;20490;-69
2023/04/14 03:34:50;;;;;;;5.18;1.80;;;3.80;99.90;;;;;;5130366;27;20053;-66
2023/04/14 03:37:19;;;;;;;7.47;2.00;;;3.80;99.90;;;;;;5099771;27;20041;-68
2023/04/14 03:39:48;;;;;;;7.75;2.85;;;3.80;99.90;;;;;;5101926;27;20047;-69
2023/04/14 03:42:15;;;;;;;7.35;1.83;;;3.80;99.90;;;;;;5102528;27;20047;-68
2023/04/14 03:44:46;;;;;;;6.35;1.80;;;3.70;99.90;;;;;;5111794;27;20448;-68
2023/04/14 03:47:13;;;;;;;7.85;2.47;;;3.70;99.90;;;;;;5129280;27;20043;-69
2023/04/14 03:49:42;;;;;;;4.47;2.67;;;3.70;99.90;;;;;;5099464;27;20115;-70
2023/04/14 03:52:10;;;;;;;7.20;1.95;;;3.70;99.90;;;;;;5102558;27;20133;-68
2023/04/14 03:54:40;;;;;;;6.63;2.25;;;3.70;99.90;;;;;;5101086;27;20039;-69
2023/04/14 03:57:09;;;;;;;9.73;2.00;;;3.70;99.90;;;;;;5097265;27;20040;-69
2023/04/14 03:59:38;;;;;;;9.27;2.08;;;3.80;99.90;;;;;;5096690;27;20035;-69
2023/04/14 04:02:05;;;;;;;4.90;1.83;;;3.80;99.90;;;;;;5106960;27;20051;-68
2023/04/14 04:04:33;;;;;;;10.98;2.08;;;3.80;99.90;;;;;;5098741;27;20046;-66
2023/04/14 04:06:59;;;;;;;6.18;1.88;;;3.70;99.90;;;;;;5135039;27;20066;-69
2023/04/14 04:09:25;;;;;;;6.15;2.47;;;3.70;99.90;;;;;;5108167;27;20039;-67
2023/04/14 04:11:52;;;;;;;8.00;1.83;;;3.70;99.90;;;;;;5100884;27;20093;-70
2023/04/14 04:14:20;;;;;;;7.22;2.03;;;3.70;99.90;;;;;;5128883;27;20074;-68
2023/04/14 04:16:50;;;;;;;8.15;2.30;;;3.80;99.90;;;;;;5112789;28;20171;-71
2023/04/14 04:19:20;;;;;;;6.25;1.77;;;3.70;99.90;;;;;;5093528;27;20057;-67
2023/04/14 04:21:51;;;;;;;3.97;2.10;;;3.70;99.90;;;;;;5145849;27;20050;-67
2023/04/14 04:24:20;;;;;;;5.45;2.00;;;3.70;99.90;;;;;;5116145;27;20055;-69
2023/04/14 04:26:47;;;;;;;6.00;2.10;;;3.60;99.90;;;;;;5101837;28;20059;-69
2023/04/14 04:29:13;;;;;;;5.10;2.22;;;3.60;99.90;;;;;;5109684;27;20077;-67
2023/04/14 04:31:39;;;;;;;4.05;2.22;;;3.60;99.90;;;;;;5111571;28;20096;-69
2023/04/14 04:34:06;;;;;;;7.35;2.20;;;3.60;99.90;;;;;;5110181;27;20069;-67
2023/04/14 04:36:33;;;;;;;5.15;2.10;;;3.60;99.90;;;;;;5111503;27;20107;-68
2023/04/14 04:38:58;;;;;;;6.35;2.05;;;3.50;99.90;;;;;;5111664;27;20039;-71
2023/04/14 04:41:29;;;;;;;3.58;1.92;;;3.50;99.90;;;;;;5110309;27;20167;-68
2023/04/14 04:43:55;;;;;;;4.38;2.00;;;3.50;99.90;;;;;;5128208;27;20041;-70
2023/04/14 04:46:43;;;;;;;7.22;2.38;;;3.50;99.90;;;;;;5145408;27;20043;-69
2023/04/14 04:49:08;;;;;;;6.90;2.20;;;3.40;99.90;;;;;;5111348;28;20043;-68
2023/04/14 04:51:34;;;;;;;7.07;2.60;;;3.50;99.90;;;;;;5110810;27;20061;-69
2023/04/14 04:54:00;;;;;;;7.35;2.90;;;3.50;99.90;;;;;;5111474;27;20039;-70
2023/04/14 04:56:26;;;;;;;7.97;2.30;;;3.50;99.90;;;;;;5111724;27;20046;-69
2023/04/14 04:58:52;;;;;;;5.82;2.40;;;3.50;99.90;;;;;;5123139;27;20389;-70
2023/04/14 05:01:20;;;;;;;4.57;1.83;;;3.50;99.90;;;;;;5108195;28;20056;-67
2023/04/14 05:03:46;;;;;;;5.82;2.05;;;3.50;99.90;;;;;;5108475;28;20040;-68
2023/04/14 05:06:12;;;;;;;9.50;2.38;;;3.50;99.90;;;;;;5092226;28;20436;-66
2023/04/14 05:08:38;;;;;;;6.68;2.40;;;3.50;99.90;;;;;;5091368;28;20048;-71
2023/04/14 05:11:04;;;;;;;4.40;2.45;;;3.50;99.90;;;;;;5108587;28;20054;-68
2023/04/14 05:13:30;;;;;;;3.38;2.08;;;3.60;99.90;;;;;;5106989;28;20042;-70
2023/04/14 05:16:07;;;;;;;7.75;2.90;;;3.60;99.90;;;;;;5109914;27;20028;-68
2023/04/14 05:18:33;;;;;;;9.00;2.50;;;3.60;99.90;;;;;;5143198;27;20407;-70
2023/04/14 05:21:07;;;;;;;9.40;3.40;;;3.70;99.90;;;;;;5111453;28;20074;-67
2023/04/14 05:23:35;;;;;;;6.38;2.85;;;3.70;99.90;;;;;;5111714;28;20025;-68
2023/04/14 05:26:01;;;;;;;8.50;2.95;;;3.80;99.90;;;;;;5093889;28;20055;-70
2023/04/14 05:28:27;;;;;;;4.20;2.42;;;3.80;99.90;;;;;;5141674;27;20040;-66
2023/04/14 05:30:53;;;;;;;9.07;2.95;;;3.90;99.90;;;;;;5120383;27;20508;-67
2023/04/14 05:33:19;;;;;;;7.82;2.70;;;3.90;99.90;;;;;;5120616;27;20085;-71
2023/04/14 05:35:45;;;;;;;8.00;2.70;;;4.00;99.90;;;;;;5114395;27;20040;-67
2023/04/14 05:38:12;;;;;;;7.85;2.60;;;4.00;99.90;;;;;;5108033;27;20039;-71
2023/04/14 05:40:38;;;;;;;9.23;2.78;;;4.00;99.90;;;;;;5112165;28;20038;-66
2023/04/14 05:43:03;;;;;;;6.07;2.75;;;4.10;99.90;;;;;;5111437;28;20170;-66
2023/04/14 05:45:29;;;;;;;5.07;2.60;;;4.10;99.90;;;;;;5111523;27;20044;-67
2023/04/14 05:47:55;;;;;;;5.53;2.50;;;4.10;99.90;;;;;;5111704;28;20112;-64
2023/04/14 05:50:23;;;;;;;4.93;2.83;;;4.20;99.90;;;;;;5105076;27;20035;-68
2023/04/14 05:52:50;;;;;;;4.28;2.22;;;4.20;99.90;;;;;;5109784;27;20043;-66
2023/04/14 05:55:19;;;;;;;7.57;3.10;;;4.20;99.90;;;;;;5111558;28;20039;-66
2023/04/14 05:57:45;;;;;;;10.68;2.95;;;4.30;99.90;;;;;;5102748;27;20035;-69
2023/04/14 06:00:11;;;;;;;6.38;2.78;;;4.30;99.90;;;;;;5110652;27;20047;-69
2023/04/14 06:02:37;;;;;;;5.18;2.40;;;4.40;99.90;;;;;;5115356;27;20051;-67
2023/04/14 06:05:06;;;;;;;7.60;3.05;;;4.40;99.90;;;;;;5105342;27;20501;-68
2023/04/14 06:07:32;;;;;;;6.40;2.88;;;4.50;99.90;;;;;;5112476;27;20490;-68
2023/04/14 06:09:58;;;;;;;9.32;3.45;;;4.60;99.90;;;;;;5113397;27;20039;-67
2023/04/14 06:12:24;;;;;;;10.68;3.25;;;4.70;99.90;;;;;;5112202;27;20405;-69
2023/04/14 06:14:49;;;;;;;9.63;3.25;;;4.90;99.90;;;;;;5113801;27;20446;-69
2023/04/14 06:17:15;;;;;;;6.70;2.80;;;5.10;99.90;;;;;;5143032;27;20042;-69
2023/04/14 06:19:41;;;;;;;9.70;3.03;;;5.30;99.90;;;;;;5115049;27;20070;-68
2023/04/14 06:22:07;;;;;;;6.95;2.83;;;5.40;99.90;;;;;;5111592;27;20047;-69
2023/04/14 06:24:34;;;;;;;8.85;2.70;;;5.60;99.90;;;;;;5128496;27;20041;-71
2023/04/14 06:27:02;;;;;;;6.03;2.58;;;5.80;99.90;;;;;;5106240;27;20114;-68
2023/04/14 06:29:28;;;;;;;8.40;2.65;;;6.00;99.90;;;;;;5114243;27;20051;-69
2023/04/14 06:31:54;;;;;;;6.43;2.67;;;6.20;99.90;;;;;;5114063;27;20577;-67
2023/04/14 06:34:19;;;;;;;5.70;2.67;;;6.30;99.90;;;;;;5110612;27;20049;-67
2023/04/14 06:36:45;;;;;;;6.93;2.75;;;6.50;99.90;;;;;;5106657;27;20074;-69
2023/04/14 06:39:11;;;;;;;9.63;2.50;;;6.70;99.90;;;;;;5112191;27;20053;-70
2023/04/14 06:41:37;;;;;;;7.85;2.83;;;6.80;99.90;;;;;;5112584;27;20035;-68
2023/04/14 06:44:03;;;;;;;6.03;2.60;;;7.00;99.90;;;;;;5111571;27;20050;-67
2023/04/14 06:46:28;;;;;;;7.13;2.75;;;7.20;99.90;;;;;;5107058;27;20047;-69
2023/04/14 06:48:54;;;;;;;10.75;3.67;;;7.40;99.90;;;;;;5112940;27;20127;-67
2023/04/14 06:51:20;;;;;;;9.02;3.13;;;7.50;99.90;;;;;;5112989;27;20413;-66
2023/04/14 06:53:46;;;;;;;8.18;3.00;;;7.70;99.90;;;;;;5129399;27;20125;-69
2023/04/14 06:56:12;;;;;;;6.60;2.97;;;7.80;99.90;;;;;;5113245;27;20047;-68
2023/04/14 06:58:39;;;;;;;6.28;2.90;;;8.00;99.90;;;;;;5112431;27;20099;-70
2023/04/14 07:01:04;;;;;;;9.23;3.25;;;8.10;99.90;;;;;;5113822;27;20059;-69
2023/04/14 07:03:30;;;;;;;6.47;2.80;;;8.20;99.90;;;;;;5095915;27;20035;-67
2023/04/14 07:06:09;;;;;;;6.25;2.75;;;8.40;99.90;;;;;;5096039;27;20031;-69
2023/04/14 07:08:35;;;;;;;8.00;2.88;;;8.50;99.90;;;;;;5111141;27;20102;-66
2023/04/14 07:11:02;;;;;;;7.85;3.28;;;8.70;99.90;;;;;;5113475;27;20479;-69
2023/04/14 07:13:29;;;;;;;6.43;2.80;;;8.80;99.90;;;;;;5100329;27;20042;-65
2023/04/14 07:15:54;;;;;;;6.03;3.22;;;9.00;99.90;;;;;;5117104;27;20042;-68
2023/04/14 07:18:21;;;;;;;8.63;3.55;;;9.10;99.90;;;;;;5114034;27;20032;-68
2023/04/14 07:20:50;;;;;;;7.15;3.05;;;9.20;99.90;;;;;;5112405;27;20050;-70
2023/04/14 07:23:15;;;;;;;7.78;2.70;;;9.40;99.90;;;;;;5113675;27;20039;-67
2023/04/14 07:25:41;;;;;;;7.72;2.88;;;9.50;99.90;;;;;;5095131;27;20043;-69
2023/04/14 07:28:06;;;;;;;7.45;3.05;;;9.60;99.90;;;;;;5113645;27;20078;-69
2023/04/14 07:30:32;;;;;;;9.63;3.05;;;9.80;99.90;;;;;;5113226;27;20104;-69
2023/04/14 07:32:59;;;;;;;6.95;3.45;;;9.90;99.90;;;;;;5112801;27;20131;-66
2023/04/14 07:35:25;;;;;;;7.95;3.17;;;10.00;99.90;;;;;;5111531;27;20497;-69
2023/04/14 07:37:51;;;;;;;7.15;3.03;;;10.10;99.90;;;;;;5111276;27;20043;-70
2023/04/14 07:40:17;;;;;;;6.75;3.13;;;10.30;99.90;;;;;;5113306;27;20464;-70
2023/04/14 07:42:43;;;;;;;8.48;2.72;;;10.40;99.90;;;;;;5112001;27;20039;-67
2023/04/14 07:45:09;;;;;;;7.88;2.70;;;10.50;99.90;;;;;;5113319;27;20046;-67
2023/04/14 07:47:36;;;;;;;8.18;2.45;;;10.60;99.90;;;;;;5112046;27;20045;-70
2023/04/14 07:50:02;;;;;;;7.53;2.40;;;10.70;99.90;;;;;;5112936;27;20096;-67
2023/04/14 07:52:28;;;;;;;5.28;2.08;;;10.90;99.90;;;;;;5111927;27;20079;-68
2023/04/14 07:54:54;;;;;;;7.85;2.58;;;10.90;99.90;;;;;;5112789;27;20039;-68
2023/04/14 07:57:20;;;;;;;8.55;2.40;;;11.10;99.90;;;;;;5111925;27;20447;-69
2023/04/14 07:59:46;;;;;;;9.98;2.75;;;11.20;99.90;;;;;;5109963;27;20031;-68
2023/04/14 08:02:11;;;;;;;8.02;2.55;;;11.30;99.90;;;;;;5107908;27;20111;-69
2023/04/14 08:04:37;;;;;;;7.38;2.30;;;11.50;99.90;;;;;;5108219;27;20103;-68
2023/04/14 08:07:03;;;;;;;8.68;1.95;;;11.60;99.90;;;;;;5112517;27;20039;-67
2023/04/14 08:09:28;;;;;;;6.72;2.00;;;11.70;99.90;;;;;;5095192;27;20546;-68
2023/04/14 08:11:56;;;;;;;5.43;2.05;;;11.80;99.90;;;;;;5112426;27;20147;-67
2023/04/14 08:14:22;;;;;;;8.65;1.73;;;11.90;99.90;;;;;;5111707;27;20448;-66
2023/04/14 08:16:48;;;;;;;5.93;1.90;;;12.10;99.90;;;;;;5112503;27;20039;-67
2023/04/14 08:19:14;;;;;;;3.97;1.65;;;12.20;99.90;;;;;;5111945;27;20035;-68
2023/04/14 08:21:40;;;;;;;7.32;2.00;;;12.30;99.90;;;;;;5112797;27;20504;-65
2023/04/14 08:24:06;;;;;;;7.65;1.90;;;12.50;99.90;;;;;;5111129;27;20043;-67
2023/04/14 08:26:31;;;;;;;8.38;2.22;;;12.60;99.90;;;;;;5143185;27;20438;-69
2023/04/14 08:28:57;;;;;;;8.80;2.60;;;12.70;99.90;;;;;;5112462;27;20050;-65
2023/04/14 08:31:24;;;;;;;7.30;2.03;;;12.70;99.90;;;;;;5111641;27;20035;-68
2023/04/14 08:33:51;;;;;;;8.38;2.15;;;12.80;99.90;;;;;;5094139;27;20046;-68
2023/04/14 08:36:17;;;;;;;7.30;2.20;;;12.80;99.90;;;;;;5110286;27;20054;-69
2023/04/14 08:38:43;;;;;;;5.93;1.95;;;12.90;99.90;;;;;;5111742;27;20081;-69
2023/04/14 08:41:12;;;;;;;8.05;1.83;;;13.00;99.90;;;;;;5107858;27;20043;-68
2023/04/14 08:43:38;;;;;;;5.03;1.90;;;13.10;99.90;;;;;;5110687;27;20056;-69
2023/04/14 08:46:04;;;;;;;5.97;2.13;;;13.20;99.90;;;;;;5112280;27;20082;-68
2023/04/14 08:48:33;;;;;;;6.82;2.22;;;13.30;99.90;;;;;;5112325;27;20046;-66
2023/04/14 08:51:27;;;;;;;8.55;2.00;;;13.50;99.90;;;;;;5113363;27;20043;-72
2023/04/14 08:53:55;;;;;;;6.60;2.50;;;13.60;99.90;;;;;;5116588;27;20118;-69
2023/04/14 08:56:26;;;;;;;9.98;2.70;;;13.60;99.90;;;;;;5114309;27;20039;-67
2023/04/14 08:58:52;;;;;;;5.72;2.15;;;13.70;99.90;;;;;;5116116;27;20039;-69
2023/04/14 09:01:18;;;;;;;9.30;2.45;;;13.90;99.90;;;;;;5097462;27;20134;-66
2023/04/14 09:03:47;;;;;;;5.32;1.73;;;13.90;99.90;;;;;;5115531;27;20079;-67
2023/04/14 09:06:13;;;;;;;6.03;1.98;;;14.00;99.90;;;;;;5097480;27;20132;-69
2023/04/14 09:08:39;;;;;;;6.10;1.50;;;14.00;99.90;;;;;;5134410;27;20467;-67
2023/04/14 09:11:04;;;;;;;6.88;1.45;;;14.10;99.90;;;;;;5112970;27;20035;-69
2023/04/14 09:13:30;;;;;;;6.43;1.25;;;14.20;99.90;;;;;;5115317;27;20466;-70
2023/04/14 09:15:56;;;;;;;7.82;1.63;;;14.20;98.30;;;;;;5150152;27;20031;-67
2023/04/14 09:18:23;;;;;;;7.03;1.80;;;14.20;98.60;;;;;;5115570;27;20035;-71
2023/04/14 09:20:51;;;;;;;5.13;1.58;;;14.40;99.40;;;;;;5116169;27;20039;-68
2023/04/14 09:23:18;;;;;;;6.93;2.13;;;14.60;98.90;;;;;;5115492;27;20041;-69
2023/04/14 09:25:44;;;;;;;5.95;1.65;;;14.50;98.00;;;;;;5115043;27;20043;-68
2023/04/14 09:28:10;;;;;;;6.25;2.10;;;14.60;98.50;;;;;;5115549;27;20122;-70
2023/04/14 09:30:36;;;;;;;10.65;2.70;;;14.70;98.30;;;;;;5114002;27;20535;-66
2023/04/14 09:33:06;;;;;;;8.32;2.63;;;14.80;98.60;;;;;;5115355;27;20035;-67
2023/04/14 09:35:47;;;;;;;4.65;1.85;;;14.90;98.40;;;;;;5114629;27;20031;-70
2023/04/14 09:38:13;;;;;;;7.45;1.40;;;15.20;98.20;;;;;;5115344;27;20478;-67
2023/04/14 09:40:42;;;;;;;12.30;2.40;;;15.00;96.80;;;;;;5093814;27;20072;-68
2023/04/14 09:43:21;;;;;;;6.28;1.95;;;15.00;96.80;;;;;;5113057;27;20043;-68
2023/04/14 09:45:47;;;;;;;7.07;1.88;;;14.90;96.80;;;;;;5113699;27;20129;-67
2023/04/14 09:48:13;;;;;;;6.43;2.00;;;14.50;96.80;;;;;;5112630;27;20125;-67
2023/04/14 09:51:05;;;;;;;7.90;2.20;;;14.30;96.90;;;;;;5115423;27;20779;-67
2023/04/14 09:53:39;;;;;;;7.25;2.00;;;14.40;97.70;;;;;;5115063;27;20532;-68
2023/04/14 09:56:10;;;;;;;7.45;2.58;;;14.60;97.30;;;;;;5110957;27;20038;-69
2023/04/14 09:58:41;;;;;;;4.33;1.90;;;14.80;97.20;;;;;;5107023;27;20044;-66
2023/04/14 10:01:12;;;;;;;6.32;2.00;;;14.80;96.60;;;;;;5114730;27;20047;-69
2023/04/14 10:03:39;;;;;;;6.50;1.95;;;14.90;96.20;;;;;;5114201;27;20050;-67
2023/04/14 10:06:12;;;;;;;5.68;2.10;;;15.20;96.70;;;;;;5137759;27;20043;-68
2023/04/14 10:08:40;;;;;;;9.63;2.92;;;15.20;96.40;;;;;;5114986;27;20478;-70
2023/04/14 10:11:15;;;;;;;8.15;2.80;;;14.90;95.90;;;;;;5092105;27;20126;-70
2023/04/14 10:13:41;;;;;;;5.03;1.92;;;14.80;95.20;;;;;;5114825;27;20071;-69
2023/04/14 10:16:07;;;;;;;5.80;2.10;;;14.80;96.20;;;;;;5109260;27;20050;-69
2023/04/14 10:18:34;;;;;;;7.05;1.98;;;15.20;96.30;;;;;;5135332;27;20034;-69
2023/04/14 10:21:00;;;;;;;7.60;1.90;;;15.80;97.40;;;;;;5132289;27;20050;-68
2023/04/14 10:23:26;;;;;;;5.90;2.00;;;16.00;96.30;;;;;;5127994;27;20121;-71
2023/04/14 10:25:54;;;;;;;5.63;1.90;;;15.70;94.60;;;;;;5113417;27;20107;-71
2023/04/14 10:28:22;;;;;;;6.13;1.70;;;15.70;93.70;;;;;;5115111;27;20046;-70
2023/04/14 10:30:49;;;;;;;3.92;1.70;;;16.10;95.10;;;;;;5114183;27;20397;-68
2023/04/14 10:33:15;;;;;;;5.90;1.58;;;16.60;94.50;;;;;;5131741;27;20176;-68
2023/04/14 10:35:43;;;;;;;6.55;1.70;;;17.00;94.50;;;;;;5124782;27;20146;-70
2023/04/14 10:38:09;;;;;;;5.28;1.50;;;16.90;92.20;;;;;;5149102;27;20035;-68
2023/04/14 10:40:45;;;;;;;7.25;1.63;;;16.50;91.80;;;;;;5112677;27;20058;-65
2023/04/14 10:43:12;;;;;;;8.50;1.80;;;15.90;90.30;;;;;;5113918;27;20039;-67
2023/04/14 10:45:57;;;;;;;5.90;1.80;;;15.60;91.30;;;;;;5108996;27;20130;-70
2023/04/14 10:48:31;;;;;;;6.70;1.50;;;15.80;91.40;;;;;;5114590;27;20073;-69
2023/04/14 10:51:16;;;;;;;5.22;2.05;;;15.70;91.90;;;;;;5124482;27;20092;-67
2023/04/14 10:53:54;;;;;;;3.78;1.40;;;15.80;90.50;;;;;;5116163;27;20082;-68
2023/04/14 10:56:20;;;;;;;8.30;1.42;;;15.90;90.80;;;;;;5113411;27;20092;-68
2023/04/14 10:58:56;;;;;;;6.22;1.52;;;16.00;90.90;;;;;;5118482;27;20160;-67
2023/04/14 11:01:28;;;;;;;4.82;1.40;;;16.10;90.30;;;;;;5117849;27;20051;-67
2023/04/14 11:03:55;;;;;;;4.43;1.23;;;16.70;91.30;;;;;;5147976;27;20038;-68
2023/04/14 11:06:46;;;;;;;4.68;1.30;;;16.70;90.30;;;;;;5112834;27;20171;-69
2023/04/14 11:09:31;;;;;;;5.10;1.35;;;16.50;86.40;;;;;;5112393;27;20049;-68
2023/04/14 11:12:03;;;;;;;5.07;1.52;;;16.10;86.10;;;;;;5109525;27;20054;-68
2023/04/14 11:14:33;;;;;;;7.28;1.40;;;15.80;86.80;;;;;;5113160;27;20489;-69
2023/04/14 11:17:03;;;;;;;5.10;1.20;;;16.00;88.00;;;;;;5124946;27;20107;-68
2023/04/14 11:19:30;;;;;;;3.75;1.20;;;16.40;89.90;;;;;;5112049;27;20031;-66
2023/04/14 11:21:56;;;;;;;3.60;1.35;;;16.30;86.90;;;;;;5106522;27;20031;-68
2023/04/14 11:24:23;;;;;;;5.38;1.45;;;16.30;86.10;;;;;;5113965;27;20043;-68
2023/04/14 11:26:55;;;;;;;5.15;1.35;;;16.70;87.60;;;;;;5113109;27;20046;-67
2023/04/14 11:29:21;;;;;;;;;;;16.80;85.30;;;;;;5095514;27;20050;-68
2023/04/14 11:32:07;;;;;;;4.13;1.20;;;16.90;83.40;;;;;;5113146;27;20397;-70
2023/04/14 11:34:33;;;;;;;4.13;1.40;;;17.30;86.20;;;;;;5111610;27;20047;-68
2023/04/14 11:37:03;;;;;;;10.73;1.48;;;17.90;85.40;;;;;;5095508;27;20054;-71
2023/04/14 11:39:28;;;;;;;4.95;1.15;;;18.40;83.60;;;;;;5111964;27;20039;-71
2023/04/14 11:41:55;;;;;;;4.20;1.00;;;18.70;80.90;;;;;;5112573;27;20051;-68
2023/04/14 11:44:21;;;;;;;3.25;1.00;;;18.50;77.40;;;;;;5111185;27;20053;-70
2023/04/14 11:46:48;;;;;;;4.30;1.15;;;17.80;76.10;;;;;;5112779;27;20055;-68
2023/04/14 11:49:14;;;;;;;3.67;0.95;;;17.00;76.20;;;;;;5112297;27;20131;-67
2023/04/14 11:51:40;;;;;;;3.53;1.30;;;16.50;76.80;;;;;;5112616;27;20088;-65
2023/04/14 11:54:06;;;;;;;3.67;1.20;;;16.20;78.60;;;;;;5129796;27;20118;-69
2023/04/14 11:56:31;;;;;;;4.15;1.33;;;16.40;79.40;;;;;;5114317;27;20043;-66
2023/04/14 11:58:59;;;;;;;4.32;1.15;;;16.60;80.20;;;;;;5095093;27;20047;-67
2023/04/14 12:01:25;;;;;;;6.88;1.60;;;16.80;77.10;;;;;;5110559;27;20143;-70
2023/04/14 12:03:51;;;;;;;3.03;1.00;;;16.80;78.80;;;;;;5111435;28;20513;-68
2023/04/14 12:06:17;;;;;;;5.40;1.20;;;16.60;76.40;;;;;;5112727;28;20477;-69
2023/04/14 12:08:49;;;;;;;3.00;1.08;;;16.40;76.40;;;;;;5112369;27;20126;-69
2023/04/14 12:11:16;;;;;;;4.55;1.60;;;16.20;76.50;;;;;;5111455;27;20047;-69
2023/04/14 12:13:42;;;;;;;5.40;1.50;;;15.80;76.10;;;;;;5112168;27;20050;-69
2023/04/14 12:16:09;;;;;;;6.25;1.33;;;15.90;78.10;;;;;;5112405;27;20053;-68
2023/04/14 12:18:35;;;;;;;5.88;1.55;;;15.90;79.10;;;;;;5113365;27;20031;-67
2023/04/14 12:21:03;;;;;;;5.30;1.40;;;15.80;78.40;;;;;;5112032;27;20068;-68
2023/04/14 12:23:28;;;;;;;4.45;1.30;;;16.00;78.90;;;;;;5094213;27;20100;-66
2023/04/14 12:25:54;;;;;;;6.30;1.65;;;16.50;80.00;;;;;;5146126;27;20039;-68
2023/04/14 12:28:26;;;;;;;4.13;1.90;;;16.80;77.00;;;;;;5117409;27;20448;-69
2023/04/14 12:30:55;;;;;;;5.18;1.20;;;16.90;75.60;;;;;;5101868;27;20100;-70
2023/04/14 12:33:29;;;;;;;5.10;1.50;;;16.60;73.50;;;;;;5118057;27;20122;-68
2023/04/14 12:36:11;;;;;;;5.93;1.27;;;16.40;74.30;;;;;;5118271;27;20110;-68
2023/04/14 12:38:36;;;;;;;5.28;1.30;;;16.20;75.00;;;;;;5116539;27;20038;-70
2023/04/14 12:41:02;;;;;;;4.32;1.38;;;16.10;75.80;;;;;;5116247;27;20043;-69
2023/04/14 12:43:33;;;;;;;5.25;1.40;;;16.20;77.80;;;;;;5115760;27;20046;-66
2023/04/14 12:45:59;;;;;;;6.32;1.83;;;16.50;77.90;;;;;;5116208;27;20429;-67
2023/04/14 12:48:43;;;;;;;5.45;1.63;;;16.90;78.70;;;;;;5117027;27;20035;-69
2023/04/14 12:51:14;;;;;;;4.13;1.40;;;17.30;77.80;;;;;;5115578;27;20489;-69
2023/04/14 12:53:41;;;;;;;7.88;1.23;;;17.60;77.70;;;;;;5115305;27;20039;-67
2023/04/14 12:56:18;;;;;;;5.30;1.48;;;18.10;78.20;;;;;;5099769;27;20431;-68
2023/04/14 12:58:46;;;;;;;3.80;1.10;;;18.50;76.30;;;;;;5115969;27;20066;-71